Time;durP1;ratioP1;P1;durP2;ratioP2;P2;SDS_P1;SDS_P2;PMS_P1;PMS_P2;Temp;Humidity;BMP_temperature;BMP_pressure;BME280_temperature;BME280_humidity;BME280_pressure;Samples;Min_cycle;Max_cycle;Signal;HPM_P1;HPM_P2
2021/12/09 00:00:00;;;;;;;27.02;17.15;;;;;;;1.92;100.00;100284.78;4979412;28;20038;-83
2021/12/09 00:02:29;;;;;;;24.02;16.08;;;;;;;1.81;100.00;100289.13;4957299;28;20122;-79
2021/12/09 00:04:56;;;;;;;29.95;17.90;;;;;;;1.78;100.00;100292.34;4971629;28;20029;-90
2021/12/09 00:07:22;;;;;;;26.25;17.63;;;;;;;1.61;100.00;100297.94;4971650;28;20049;-80
2021/12/09 00:09:49;;;;;;;32.47;18.80;;;;;;;1.53;100.00;100314.31;4971831;28;20035;-83
2021/12/09 00:12:15;;;;;;;30.10;19.88;;;;;;;1.44;100.00;100305.25;4971206;28;20042;-85
2021/12/09 00:14:40;;;;;;;30.35;18.63;;;;;;;1.20;100.00;100323.88;4972082;28;20041;-80
2021/12/09 00:17:08;;;;;;;31.73;20.13;;;;;;;0.94;100.00;100327.94;4971799;28;20089;-80
2021/12/09 00:19:35;;;;;;;32.13;20.23;;;;;;;0.78;100.00;100316.63;4933013;29;20048;-83
2021/12/09 00:22:04;;;;;;;31.37;19.37;;;;;;;0.93;100.00;100314.31;4932589;29;20066;-76
2021/12/09 00:24:30;;;;;;;24.48;15.55;;;;;;;0.76;100.00;100279.19;4932781;29;20427;-75
2021/12/09 00:26:55;;;;;;;35.28;20.05;;;;;;;0.76;100.00;100322.38;4932403;29;20032;-79
2021/12/09 00:29:21;;;;;;;29.77;18.43;;;;;;;0.76;100.00;100328.38;4932906;29;20039;-77
2021/12/09 00:31:49;;;;;;;29.73;18.53;;;;;;;0.69;100.00;100312.56;4932746;29;20063;-87
2021/12/09 00:34:27;;;;;;;29.60;18.63;;;;;;;0.69;100.00;100308.34;4916732;29;20106;-87
2021/12/09 00:36:59;;;;;;;31.10;18.67;;;;;;;0.73;100.00;100319.63;4932916;29;20087;-83
2021/12/09 00:39:24;;;;;;;33.23;19.17;;;;;;;0.64;100.00;100281.72;4932738;29;20040;-85
2021/12/09 00:41:50;;;;;;;29.53;18.30;;;;;;;0.83;100.00;100331.34;4932864;29;20099;-86
2021/12/09 00:44:16;;;;;;;29.90;17.50;;;;;;;0.64;100.00;100318.16;4932543;28;20023;-82
2021/12/09 00:46:41;;;;;;;27.87;18.37;;;;;;;0.87;100.00;100338.44;4916822;29;20035;-88
2021/12/09 00:49:08;;;;;;;33.43;18.90;;;;;;;0.91;100.00;100340.41;4919348;29;20059;-85
2021/12/09 00:51:33;;;;;;;31.73;19.83;;;;;;;0.96;100.00;100334.91;4949650;28;20070;-83
2021/12/09 00:53:59;;;;;;;33.20;20.27;;;;;;;0.93;100.00;100337.22;4987038;28;20046;-80
2021/12/09 00:56:25;;;;;;;32.27;20.03;;;;;;;1.01;100.00;100324.19;4991478;28;20041;-85
2021/12/09 00:58:51;;;;;;;34.57;20.43;;;;;;;0.49;100.00;100212.91;4991349;28;20473;-91
2021/12/09 01:01:16;;;;;;;33.10;19.47;;;;;;;1.06;100.00;100305.97;4991262;28;20029;-88
2021/12/09 01:03:43;;;;;;;31.37;19.60;;;;;;;0.90;100.00;100337.00;4991851;28;20034;-89
2021/12/09 01:06:10;;;;;;;35.17;20.17;;;;;;;0.76;100.00;100345.25;5007971;28;20018;-80
2021/12/09 01:08:36;;;;;;;30.63;18.90;;;;;;;0.81;100.00;100343.97;4992019;28;20026;-83
2021/12/09 01:11:02;;;;;;;35.03;20.03;;;;;;;0.70;100.00;100345.69;4991256;28;20030;-91
2021/12/09 01:13:28;;;;;;;35.63;21.17;;;;;;;0.55;100.00;100337.81;4992335;28;20116;-86
2021/12/09 01:15:54;;;;;;;33.80;20.57;;;;;;;0.59;100.00;100356.72;4992539;28;20112;-83
2021/12/09 01:18:19;;;;;;;31.80;19.43;;;;;;;0.64;100.00;100366.44;4991091;28;20117;-84
2021/12/09 01:20:45;;;;;;;31.93;19.17;;;;;;;0.60;100.00;100356.81;4992313;28;20038;-86
2021/12/09 01:23:11;;;;;;;31.27;19.33;;;;;;;0.60;100.00;100349.19;4990421;28;20042;-83
2021/12/09 01:25:37;;;;;;;31.13;19.43;;;;;;;0.56;100.00;100342.13;5007067;28;20048;-84
2021/12/09 01:28:12;;;;;;;32.30;19.97;;;;;;;0.61;100.00;100350.06;4992015;28;20471;-83
2021/12/09 01:30:37;;;;;;;31.33;19.20;;;;;;;0.64;100.00;100335.94;4990772;28;20405;-86
2021/12/09 01:33:03;;;;;;;33.10;19.63;;;;;;;0.78;100.00;100362.38;5006935;28;20038;-85
2021/12/09 01:35:33;;;;;;;34.47;19.77;;;;;;;0.75;100.00;100369.78;4991986;28;20113;-83
2021/12/09 01:38:07;;;;;;;32.77;20.53;;;;;;;0.44;100.00;100324.31;4990994;28;20030;-84
2021/12/09 01:40:32;;;;;;;33.73;20.27;;;;;;;0.84;100.00;100367.03;4991727;28;20026;-83
2021/12/09 01:42:58;;;;;;;31.60;20.07;;;;;;;0.85;100.00;100367.91;5006969;28;20023;-82
2021/12/09 01:45:24;;;;;;;33.87;20.73;;;;;;;0.91;100.00;100376.91;4991036;28;20089;-81
2021/12/09 01:47:50;;;;;;;37.43;20.73;;;;;;;0.95;100.00;100360.22;5006807;28;20125;-81
2021/12/09 01:50:16;;;;;;;35.27;21.20;;;;;;;1.14;100.00;100359.91;5006540;28;20132;-80
2021/12/09 01:52:43;;;;;;;35.07;20.90;;;;;;;1.22;100.00;100361.34;5001320;28;20050;-82
2021/12/09 01:55:10;;;;;;;32.90;21.37;;;;;;;1.27;100.00;100365.09;5010056;28;20033;-82
2021/12/09 01:57:36;;;;;;;33.50;21.30;;;;;;;1.37;100.00;100364.13;5009605;28;20065;-85
2021/12/09 02:00:13;;;;;;;35.90;21.17;;;;;;;1.47;100.00;100352.03;5009308;28;20034;-82
2021/12/09 02:02:40;;;;;;;37.05;22.83;;;;;;;1.51;100.00;100323.50;4971684;28;20189;-78
2021/12/09 02:05:07;;;;;;;35.65;22.52;;;;;;;1.71;100.00;100345.28;4969633;28;20046;-77
2021/12/09 02:07:33;;;;;;;41.72;26.02;;;;;;;1.71;100.00;100333.41;4969430;28;20046;-79
2021/12/09 02:09:58;;;;;;;40.60;24.52;;;;;;;1.81;100.00;100334.94;4969402;28;20493;-75
2021/12/09 02:12:24;;;;;;;41.72;25.52;;;;;;;1.85;100.00;100348.78;4969403;28;20031;-81
2021/12/09 02:14:52;;;;;;;38.97;23.17;;;;;;;1.57;100.00;100334.09;4969414;28;20034;-78
2021/12/09 02:17:17;;;;;;;36.85;22.48;;;;;;;1.56;100.00;100355.25;4968764;28;20029;-75
2021/12/09 02:19:44;;;;;;;36.00;21.98;;;;;;;1.65;100.00;100355.88;4952844;28;20026;-79
2021/12/09 02:22:11;;;;;;;35.53;21.42;;;;;;;1.67;100.00;100354.34;4969287;28;20413;-80
2021/12/09 02:24:37;;;;;;;33.38;20.75;;;;;;;1.34;100.00;100279.06;4969131;28;20031;-79
2021/12/09 02:27:04;;;;;;;32.47;21.58;;;;;;;1.52;100.00;100307.44;4969131;28;20425;-76
2021/12/09 02:29:30;;;;;;;34.70;22.48;;;;;;;1.83;100.00;100347.78;4969150;28;20611;-80
2021/12/09 02:31:57;;;;;;;33.63;21.98;;;;;;;1.95;100.00;100358.81;4968512;28;20031;-77
2021/12/09 02:34:23;;;;;;;35.03;21.55;;;;;;;2.01;100.00;100360.91;4952749;28;20556;-80
2021/12/09 02:36:51;;;;;;;34.00;21.58;;;;;;;2.04;100.00;100346.72;4968944;28;20481;-77
2021/12/09 02:39:17;;;;;;;33.17;21.27;;;;;;;1.91;100.00;100318.66;4975817;28;20042;-75
2021/12/09 02:41:44;;;;;;;34.05;20.70;;;;;;;2.17;100.00;100348.47;5009219;28;20485;-77
2021/12/09 02:44:13;;;;;;;35.90;22.00;;;;;;;1.96;100.00;100340.22;5010044;28;20536;-84
2021/12/09 02:46:40;;;;;;;37.22;22.45;;;;;;;1.99;100.00;100349.72;5010248;28;20069;-81
2021/12/09 02:49:12;;;;;;;38.40;23.48;;;;;;;2.00;100.00;100349.84;5010457;28;20511;-78
2021/12/09 02:51:38;;;;;;;38.67;22.10;;;;;;;2.02;100.00;100347.38;5010086;28;20543;-74
2021/12/09 02:54:07;;;;;;;30.83;20.55;;;;;;;2.08;100.00;100345.25;5009125;28;20083;-77
2021/12/09 02:56:33;;;;;;;33.80;21.13;;;;;;;2.12;100.00;100337.06;5042365;28;20091;-80
2021/12/09 02:58:58;;;;;;;35.22;21.60;;;;;;;2.15;100.00;100331.31;5030263;28;20080;-77
2021/12/09 03:01:28;;;;;;;32.38;20.92;;;;;;;2.10;100.00;100331.84;5050723;28;20403;-81
2021/12/09 03:03:59;;;;;;;33.20;21.52;;;;;;;1.84;100.00;100291.88;5050757;28;20494;-79
2021/12/09 03:06:40;;;;;;;33.75;21.75;;;;;;;1.94;100.00;100296.84;5050920;28;20017;-79
2021/12/09 03:09:15;;;;;;;33.08;20.90;;;;;;;1.97;100.00;100347.09;5032775;28;20025;-81
2021/12/09 03:11:42;;;;;;;35.88;21.48;;;;;;;1.76;100.00;100329.53;5053171;28;20029;-82
2021/12/09 03:14:08;;;;;;;34.40;21.70;;;;;;;1.91;100.00;100350.06;5035067;28;20040;-76
2021/12/09 03:16:34;;;;;;;33.85;21.65;;;;;;;1.98;100.00;100336.13;5055205;28;20029;-75
2021/12/09 03:19:03;;;;;;;33.38;22.08;;;;;;;1.58;100.00;100278.25;5037382;28;20035;-81
2021/12/09 03:21:40;;;;;;;34.30;20.98;;;;;;;1.77;100.00;100343.16;5037036;28;20029;-78
2021/12/09 03:24:10;;;;;;;32.95;21.40;;;;;;;1.77;100.00;100330.44;5054839;28;20043;-74
2021/12/09 03:26:43;;;;;;;36.90;22.75;;;;;;;1.43;100.00;100288.25;5036515;28;20028;-77
2021/12/09 03:29:12;;;;;;;33.33;21.33;;;;;;;1.70;100.00;100336.75;5054306;28;20037;-81
2021/12/09 03:31:41;;;;;;;38.92;22.27;;;;;;;1.50;100.00;100298.84;5033420;28;20035;-78
2021/12/09 03:34:07;;;;;;;36.47;23.02;;;;;;;1.65;100.00;100322.81;5054440;28;20033;-79
2021/12/09 03:36:33;;;;;;;29.08;19.85;;;;;;;1.80;100.00;100334.84;5053827;28;20017;-79
2021/12/09 03:39:02;;;;;;;35.20;19.05;;;;;;;1.58;100.00;100305.34;5054262;28;20087;-80
2021/12/09 03:41:27;;;;;;;31.48;19.52;;;;;;;1.50;100.00;100304.81;5036125;28;20025;-78
2021/12/09 03:43:54;;;;;;;35.45;19.10;;;;;;;1.51;100.00;100319.31;5054057;28;20040;-81
2021/12/09 03:46:20;;;;;;;32.38;19.70;;;;;;;1.70;100.00;100334.19;5054398;28;20406;-82
2021/12/09 03:48:46;;;;;;;30.35;19.55;;;;;;;1.70;100.00;100323.16;5036217;28;20438;-83
2021/12/09 03:51:12;;;;;;;31.45;20.30;;;;;;;1.83;100.00;100335.06;5053879;28;20037;-82
2021/12/09 03:53:38;;;;;;;31.80;19.30;;;;;;;1.60;100.00;100341.97;5053993;28;20059;-80
2021/12/09 03:56:04;;;;;;;26.45;17.92;;;;;;;1.55;100.00;100348.41;5036154;28;20036;-82
2021/12/09 03:58:29;;;;;;;30.65;18.90;;;;;;;1.44;100.00;100365.44;5036008;28;20040;-80
2021/12/09 04:00:55;;;;;;;30.33;19.83;;;;;;;1.37;100.00;100369.19;5035871;28;20025;-80
2021/12/09 04:03:21;;;;;;;29.63;19.25;;;;;;;1.05;100.00;100318.56;5038714;28;20068;-83
2021/12/09 04:05:48;;;;;;;34.13;20.25;;;;;;;1.00;100.00;100330.03;5012757;28;20076;-81
2021/12/09 04:08:15;;;;;;;32.20;20.25;;;;;;;0.88;100.00;100365.63;5012813;28;20018;-79
2021/12/09 04:10:41;;;;;;;34.47;20.70;;;;;;;0.86;100.00;100369.69;5012727;28;20049;-81
2021/12/09 04:13:06;;;;;;;31.43;20.13;;;;;;;0.76;100.00;100361.41;5012259;28;20057;-79
2021/12/09 04:15:32;;;;;;;33.60;20.13;;;;;;;0.70;100.00;100358.41;5012706;28;20029;-77
2021/12/09 04:17:58;;;;;;;33.60;19.93;;;;;;;0.61;100.00;100350.06;5012677;28;20045;-83
2021/12/09 04:20:24;;;;;;;35.17;19.70;;;;;;;0.37;100.00;100332.22;4995201;28;20076;-84
2021/12/09 04:22:50;;;;;;;34.50;19.83;;;;;;;0.16;100.00;100364.50;5009353;28;20029;-78
2021/12/09 04:25:17;;;;;;;31.33;19.87;;;;;;;0.11;100.00;100359.09;5010863;28;20031;-81
2021/12/09 04:27:43;;;;;;;36.13;21.03;;;;;;;-0.10;100.00;100326.97;4979035;28;20543;-83
2021/12/09 04:30:09;;;;;;;36.37;21.03;;;;;;;-0.01;100.00;100365.75;5013016;28;20026;-84
2021/12/09 04:32:35;;;;;;;35.70;21.07;;;;;;;-0.15;100.00;100359.56;5011170;28;20030;-83
2021/12/09 04:35:00;;;;;;;33.73;20.40;;;;;;;-0.22;100.00;100340.47;5010273;28;20096;-85
2021/12/09 04:37:26;;;;;;;38.43;21.87;;;;;;;-1.44;100.00;100188.13;5012733;28;20045;-85
2021/12/09 04:39:52;;;;;;;38.53;21.53;;;;;;;-0.52;100.00;100352.53;4994458;28;20033;-82
2021/12/09 04:42:17;;;;;;;38.07;22.33;;;;;;;-0.22;100.00;100372.56;4994794;28;20481;-82
2021/12/09 04:44:44;;;;;;;38.63;21.97;;;;;;;-0.24;100.00;100341.13;5012533;28;20461;-84
2021/12/09 04:47:09;;;;;;;34.97;21.27;;;;;;;-0.07;100.00;100365.28;5011788;28;20026;-84
2021/12/09 04:49:35;;;;;;;35.43;21.00;;;;;;;0.12;100.00;100377.72;4994520;28;20030;-87
2021/12/09 04:52:01;;;;;;;34.37;21.07;;;;;;;-0.20;100.00;100326.25;5010458;28;20090;-84
2021/12/09 04:54:26;;;;;;;38.43;21.93;;;;;;;0.05;100.00;100356.06;5012097;28;20443;-81
2021/12/09 04:56:52;;;;;;;33.63;21.57;;;;;;;0.03;100.00;100362.66;4994586;28;20030;-81
2021/12/09 04:59:18;;;;;;;37.90;22.70;;;;;;;-0.01;100.00;100375.91;5012166;28;20415;-84
2021/12/09 05:01:48;;;;;;;35.87;21.33;;;;;;;-0.32;100.00;100373.50;5010259;28;20065;-83
2021/12/09 05:04:14;;;;;;;36.67;21.80;;;;;;;-0.75;100.00;100380.22;5011011;28;20036;-86
2021/12/09 05:06:40;;;;;;;36.13;21.73;;;;;;;-0.82;100.00;100373.78;5011915;28;20038;-75
2021/12/09 05:09:06;;;;;;;47.17;24.80;;;;;;;-0.89;100.00;100385.06;5012607;28;20117;-78
2021/12/09 05:13:58;;;;;;;56.67;28.97;;;;;;;-0.80;100.00;100386.56;5012696;28;20492;-79
2021/12/09 05:16:24;;;;;;;61.60;31.83;;;;;;;-0.72;100.00;100365.28;5011242;28;20033;-84
2021/12/09 05:18:57;;;;;;;62.20;31.30;;;;;;;-0.44;100.00;100400.44;5011166;28;20034;-83
2021/12/09 05:21:22;;;;;;;50.97;27.10;;;;;;;-0.81;100.00;100357.78;4994590;28;20052;-82
2021/12/09 05:23:48;;;;;;;43.03;25.33;;;;;;;-0.75;100.00;100373.50;5011242;28;20116;-88
2021/12/09 05:26:15;;;;;;;38.23;22.60;;;;;;;-0.94;100.00;100399.00;5012250;28;20030;-91
2021/12/09 05:28:40;;;;;;;35.37;21.80;;;;;;;-0.58;100.00;100414.53;4996531;28;20492;-83
2021/12/09 05:33:51;;;;;;;32.20;20.60;;;;;;;-0.69;100.00;100357.91;5011244;28;20037;-90
2021/12/09 05:36:18;;;;;;;36.57;21.33;;;;;;;-0.38;100.00;100403.47;4997760;28;20403;-89
2021/12/09 05:38:43;;;;;;;33.53;21.20;;;;;;;-0.23;100.00;100407.19;4999031;28;20030;-89
2021/12/09 05:41:09;;;;;;;38.90;22.13;;;;;;;-0.03;100.00;100418.91;4997026;28;20049;-76
2021/12/09 05:43:36;;;;;;;41.33;23.97;;;;;;;0.07;100.00;100405.28;5011433;28;20476;-78
2021/12/09 05:46:02;;;;;;;41.37;24.80;;;;;;;0.19;100.00;100407.91;5012522;28;20093;-83
2021/12/09 05:48:30;;;;;;;41.63;24.53;;;;;;;-0.06;100.00;100370.47;5000663;28;20038;-80
2021/12/09 05:50:55;;;;;;;41.43;24.03;;;;;;;-0.05;100.00;100381.47;5011662;28;20033;-80
2021/12/09 05:53:21;;;;;;;45.90;25.17;;;;;;;0.06;100.00;100378.13;5010299;28;20049;-79
2021/12/09 05:55:47;;;;;;;43.63;27.60;;;;;;;0.14;100.00;100379.59;5010595;28;20042;-80
2021/12/09 05:58:15;;;;;;;43.07;25.43;;;;;;;0.30;100.00;100399.44;5011487;28;20029;-81
2021/12/09 06:00:41;;;;;;;44.83;25.57;;;;;;;0.53;100.00;100428.25;5012634;28;20165;-79
2021/12/09 06:03:07;;;;;;;42.77;25.50;;;;;;;0.47;100.00;100417.63;5026900;28;20021;-79
2021/12/09 06:05:34;;;;;;;43.77;24.97;;;;;;;0.46;100.00;100411.66;5011262;28;20017;-78
2021/12/09 06:08:02;;;;;;;41.10;25.37;;;;;;;0.50;100.00;100424.59;5029281;28;20025;-76
2021/12/09 06:10:34;;;;;;;47.30;25.77;;;;;;;0.63;100.00;100412.94;5012839;28;20033;-79
2021/12/09 06:13:00;;;;;;;38.10;22.97;;;;;;;0.45;100.00;100378.53;5031200;28;20163;-79
2021/12/09 06:15:27;;;;;;;37.60;23.83;;;;;;;0.65;100.00;100423.22;5031085;28;20032;-79
2021/12/09 06:17:53;;;;;;;38.37;23.40;;;;;;;0.58;100.00;100405.75;5030660;28;20036;-80
2021/12/09 06:20:18;;;;;;;38.10;24.43;;;;;;;0.52;100.00;100395.13;5043416;28;20029;-80
2021/12/09 06:22:44;;;;;;;36.60;23.27;;;;;;;0.62;100.00;100375.63;5017732;28;20021;-79
2021/12/09 06:25:17;;;;;;;40.40;23.00;;;;;;;0.96;100.00;100428.09;5013982;28;20447;-79
2021/12/09 06:27:43;;;;;;;35.73;23.03;;;;;;;0.93;100.00;100407.50;5008992;28;20030;-80
2021/12/09 06:30:09;;;;;;;35.70;22.07;;;;;;;1.12;100.00;100430.09;4993572;28;20053;-79
2021/12/09 06:32:35;;;;;;;33.37;20.70;;;;;;;1.09;100.00;100440.03;5009970;28;20059;-79
2021/12/09 06:35:00;;;;;;;46.33;25.30;;;;;;;1.15;100.00;100448.13;5009848;28;20057;-78
2021/12/09 06:37:26;;;;;;;44.47;24.90;;;;;;;0.78;100.00;100397.94;5012423;28;20048;-77
2021/12/09 06:39:51;;;;;;;42.90;27.00;;;;;;;0.88;100.00;100454.56;4958810;28;20037;-78
2021/12/09 06:42:17;;;;;;;40.80;25.70;;;;;;;0.68;100.00;100456.47;5010456;28;20022;-78
2021/12/09 06:44:44;;;;;;;40.10;23.43;;;;;;;0.64;100.00;100465.53;5009794;28;20156;-77
2021/12/09 06:47:09;;;;;;;48.53;28.83;;;;;;;0.48;100.00;100466.00;5010028;28;20411;-77
2021/12/09 06:49:35;;;;;;;40.63;23.60;;;;;;;0.26;100.00;100480.34;5009898;28;20069;-78
2021/12/09 06:52:00;;;;;;;42.80;24.57;;;;;;;0.21;100.00;100477.44;5009672;28;20463;-78
2021/12/09 06:54:26;;;;;;;38.80;23.10;;;;;;;0.01;100.00;100460.63;5009968;28;20040;-77
2021/12/09 06:56:51;;;;;;;44.37;25.30;;;;;;;-0.01;100.00;100485.91;5010055;28;20093;-77
2021/12/09 06:59:17;;;;;;;48.20;28.93;;;;;;;0.09;100.00;100474.84;5009985;28;20022;-76
2021/12/09 07:01:43;;;;;;;49.13;27.33;;;;;;;0.10;100.00;100491.84;5033274;23;20065;-79
2021/12/09 07:04:10;;;;;;;53.37;33.80;;;;;;;-0.10;100.00;100461.44;5028813;28;20087;-78
2021/12/09 07:06:38;;;;;;;50.57;30.13;;;;;;;0.15;100.00;100494.75;5013518;28;20053;-74
2021/12/09 07:09:05;;;;;;;46.42;28.02;;;;;;;0.19;100.00;100496.75;5030732;28;20041;-72
2021/12/09 07:11:32;;;;;;;51.60;29.53;;;;;;;0.11;100.00;100482.56;5030593;28;20458;-73
2021/12/09 07:13:57;;;;;;;49.63;30.50;;;;;;;0.00;100.00;100469.06;5030835;28;20072;-76
2021/12/09 07:16:23;;;;;;;54.33;31.73;;;;;;;0.12;100.00;100467.44;5030693;28;20041;-78
2021/12/09 07:18:49;;;;;;;55.27;29.33;;;;;;;-0.04;100.00;100452.69;5013045;28;20113;-79
2021/12/09 07:21:18;;;;;;;52.93;30.90;;;;;;;-0.01;100.00;100440.22;5030693;28;20021;-78
2021/12/09 07:23:46;;;;;;;68.15;38.13;;;;;;;0.44;100.00;100479.25;5030751;28;20446;-76
2021/12/09 07:26:11;;;;;;;52.30;31.17;;;;;;;0.52;100.00;100456.09;5030936;28;20099;-75
2021/12/09 07:28:37;;;;;;;53.60;30.63;;;;;;;0.36;100.00;100416.78;5030672;28;20439;-79
2021/12/09 07:31:03;;;;;;;51.13;28.90;;;;;;;0.53;100.00;100440.09;5030745;28;20549;-78
2021/12/09 07:33:28;;;;;;;51.10;30.80;;;;;;;0.90;100.00;100473.38;5012744;28;20030;-77
2021/12/09 07:35:54;;;;;;;59.60;33.73;;;;;;;0.77;100.00;100433.41;5030496;28;20044;-77
2021/12/09 07:38:19;;;;;;;57.37;31.97;;;;;;;1.21;100.00;100463.84;5030486;28;20090;-75
2021/12/09 07:40:45;;;;;;;56.17;31.70;;;;;;;1.39;100.00;100459.19;5030449;28;20029;-77
2021/12/09 07:43:10;;;;;;;59.13;32.08;;;;;;;1.50;100.00;100470.19;5030661;28;20033;-76
2021/12/09 07:45:36;;;;;;;63.92;34.72;;;;;;;1.67;100.00;100466.31;5030544;28;20061;-79
2021/12/09 07:48:01;;;;;;;61.10;36.70;;;;;;;1.75;100.00;100459.25;5030473;28;20026;-76
2021/12/09 07:50:31;;;;;;;73.00;41.15;;;;;;;1.85;100.00;100465.88;5030460;28;20029;-77
2021/12/09 07:52:57;;;;;;;71.80;40.85;;;;;;;1.99;100.00;100480.47;5030425;28;20507;-78
2021/12/09 07:55:24;;;;;;;74.03;38.60;;;;;;;2.09;100.00;100476.91;5030868;28;20037;-93
2021/12/09 07:57:50;;;;;;;74.93;38.30;;;;;;;2.10;100.00;100443.03;5014816;28;20037;-88
2021/12/09 08:00:21;;;;;;;84.38;38.95;;;;;;;2.10;100.00;100454.09;5016827;28;20018;-90
2021/12/09 08:02:48;;;;;;;82.95;43.38;;;;;;;2.03;100.00;100423.91;5011438;28;20068;-87
2021/12/09 08:05:15;;;;;;;87.07;44.40;;;;;;;2.34;100.00;100468.44;5013390;28;20045;-87
2021/12/09 08:07:41;;;;;;;73.53;36.40;;;;;;;2.04;100.00;100405.28;5013828;28;20041;-89
2021/12/09 08:10:10;;;;;;;78.63;35.15;;;;;;;1.91;100.00;100387.41;5016682;28;20037;-88
2021/12/09 08:12:36;;;;;;;76.78;37.38;;;;;;;2.49;100.00;100474.59;5016713;28;20033;-89
2021/12/09 08:15:03;;;;;;;74.97;35.85;;;;;;;2.21;100.00;100411.56;5016388;28;20463;-86
2021/12/09 08:20:08;;;;;;;70.97;32.22;;;;;;;2.58;100.00;100466.75;5033914;28;20087;-85
2021/12/09 08:22:34;;;;;;;111.47;50.67;;;;;;;2.63;100.00;100467.94;5016338;28;20030;-87
2021/12/09 08:25:00;;;;;;;112.50;49.03;;;;;;;2.57;100.00;100453.09;5016184;28;20032;-88
2021/12/09 08:27:27;;;;;;;80.55;36.50;;;;;;;2.54;100.00;100447.81;5016167;28;20115;-88
2021/12/09 08:29:52;;;;;;;77.47;33.85;;;;;;;2.55;100.00;100452.09;5015992;28;20022;-89
2021/12/09 08:32:19;;;;;;;61.92;29.95;;;;;;;2.23;100.00;100392.19;5016144;28;20033;-88
2021/12/09 08:34:45;;;;;;;63.53;28.90;;;;;;;2.67;100.00;100459.72;5014908;28;20458;-89
2021/12/09 08:37:12;;;;;;;68.43;31.08;;;;;;;2.84;100.00;100465.06;5016245;28;20026;-88
2021/12/09 08:39:38;;;;;;;74.15;31.60;;;;;;;2.54;100.00;100406.13;5015935;28;20091;-90
2021/12/09 08:42:04;;;;;;;83.60;35.17;;;;;;;2.90;100.00;100466.38;5016292;28;20045;-89
2021/12/09 08:44:30;;;;;;;76.43;35.92;;;;;;;2.92;100.00;100446.94;5012439;28;20041;-90
2021/12/09 08:46:55;;;;;;;68.80;32.28;;;;;;;2.98;100.00;100456.69;5013529;28;20041;-89
2021/12/09 08:49:21;;;;;;;75.00;32.60;;;;;;;2.90;100.00;100442.53;5014129;28;20130;-91
2021/12/09 08:51:49;;;;;;;73.85;30.98;;;;;;;3.07;100.00;100459.84;4989840;28;20129;-88
2021/12/09 08:54:15;;;;;;;68.78;28.33;;;;;;;3.04;100.00;100435.78;4993111;28;20092;-90
2021/12/09 08:56:43;;;;;;;60.95;26.92;;;;;;;3.21;100.00;100460.75;4976189;28;20050;-88
2021/12/09 08:59:09;;;;;;;48.95;22.50;;;;;;;3.01;100.00;100433.06;4974400;28;20030;-88
2021/12/09 09:01:35;;;;;;;57.15;25.15;;;;;;;2.84;100.00;100407.31;4988708;28;20103;-87
2021/12/09 09:04:01;;;;;;;61.42;25.73;;;;;;;3.23;100.00;100433.69;4972144;28;20077;-90
2021/12/09 09:06:29;;;;;;;60.97;24.40;;;;;;;3.35;100.00;100437.81;4974205;28;20057;-89
2021/12/09 09:08:57;;;;;;;51.38;24.10;;;;;;;3.08;100.00;100387.66;4973833;28;20030;-87
2021/12/09 09:11:24;;;;;;;62.08;25.60;;;;;;;3.13;100.00;100390.50;4975403;28;20432;-90
2021/12/09 09:13:50;;;;;;;55.92;24.25;;;;;;;3.18;100.00;100412.09;4974994;28;20286;-90
2021/12/09 09:16:16;;;;;;;58.45;25.63;;;;;;;3.17;100.00;100414.56;4974555;28;20540;-86
2021/12/09 09:18:42;;;;;;;65.18;24.67;;;;;;;3.04;100.00;100388.25;4974508;28;20116;-77
2021/12/09 09:21:10;;;;;;;53.45;25.35;;;;;;;3.27;100.00;100404.16;4990213;28;20472;-75
2021/12/09 09:23:36;;;;;;;58.80;26.88;;;;;;;3.38;100.00;100405.72;5025322;28;20138;-79
2021/12/09 09:26:03;;;;;;;57.65;26.33;;;;;;;3.40;100.00;100385.41;5032073;28;20064;-77
2021/12/09 09:28:28;;;;;;;57.25;27.50;;;;;;;3.45;100.00;100385.72;5031939;28;20025;-78
2021/12/09 09:30:57;;;;;;;50.15;24.55;;;;;;;3.27;100.00;100371.00;5014456;28;20026;-82
2021/12/09 09:33:30;;;;;;;52.38;24.60;;;;;;;3.40;100.00;100388.88;5014428;28;20467;-75
2021/12/09 09:35:56;;;;;;;55.38;24.83;;;;;;;2.82;100.00;100312.00;5029723;28;20029;-75
2021/12/09 09:38:26;;;;;;;47.42;24.35;;;;;;;3.31;100.00;100379.72;4970171;28;20039;-73
2021/12/09 09:41:15;;;;;;;;;;;;;;;3.39;100.00;100374.31;4929621;29;20391;-75
2021/12/09 09:46:20;;;;;;;48.33;23.75;;;;;;;3.49;100.00;100370.69;4929555;29;20395;-76
2021/12/09 09:48:48;;;;;;;46.10;23.70;;;;;;;3.42;100.00;100355.78;4926105;29;20061;-74
2021/12/09 09:51:16;;;;;;;51.53;22.92;;;;;;;2.78;100.00;100274.34;4929519;29;20169;-75
2021/12/09 09:53:42;;;;;;;50.45;23.38;;;;;;;3.31;100.00;100347.44;4931677;29;20076;-76
2021/12/09 09:56:14;;;;;;;51.58;25.67;;;;;;;3.24;100.00;100294.25;4931639;29;20043;-76
2021/12/09 09:58:44;;;;;;;56.42;25.45;;;;;;;3.71;100.00;100352.53;4915839;29;20084;-76
2021/12/09 10:01:10;;;;;;;53.17;25.08;;;;;;;3.70;100.00;100332.88;4931405;29;20156;-78
2021/12/09 10:03:44;;;;;;;53.30;26.40;;;;;;;3.76;100.00;100336.59;4929258;29;20056;-80
2021/12/09 10:06:12;;;;;;;56.10;28.27;;;;;;;3.73;100.00;100330.50;4932059;29;20056;-79
2021/12/09 10:08:38;;;;;;;56.85;27.35;;;;;;;3.75;100.00;100355.25;4942207;28;20050;-75
2021/12/09 10:11:05;;;;;;;57.10;29.17;;;;;;;3.89;100.00;100346.78;4989784;28;20030;-73
2021/12/09 10:13:34;;;;;;;57.15;27.27;;;;;;;3.56;100.00;100296.28;5010732;28;20033;-74
2021/12/09 10:16:01;;;;;;;55.63;28.00;;;;;;;3.96;100.00;100350.59;5011191;28;20057;-75
2021/12/09 10:18:45;;;;;;;57.67;29.77;;;;;;;3.68;100.00;100331.03;5010510;28;20265;-75
2021/12/09 10:21:22;;;;;;;53.05;29.35;;;;;;;3.78;100.00;100320.56;5010147;28;20168;-75
2021/12/09 10:23:57;;;;;;;49.88;27.00;;;;;;;3.86;100.00;100311.72;5010704;28;20513;-75
2021/12/09 10:26:34;;;;;;;46.50;25.48;;;;;;;3.92;100.00;100336.75;5010334;28;20034;-80
2021/12/09 10:29:09;;;;;;;48.28;27.13;;;;;;;4.13;100.00;100332.06;5027884;28;20104;-76
2021/12/09 10:31:58;;;;;;;47.05;25.80;;;;;;;3.46;100.00;100190.97;5030098;28;20030;-76
2021/12/09 10:34:39;;;;;;;51.78;26.63;;;;;;;4.27;100.00;100319.25;5030155;28;20017;-75
2021/12/09 10:37:31;;;;;;;56.38;28.73;;;;;;;4.19;100.00;100303.47;5028753;28;20034;-75
2021/12/09 10:39:57;;;;;;;54.63;29.30;;;;;;;4.20;100.00;100318.88;5030102;28;20100;-76
2021/12/09 10:42:34;;;;;;;63.42;33.63;;;;;;;3.92;100.00;100321.41;5028780;28;20481;-75
2021/12/09 10:45:28;;;;;;;70.72;34.85;;;;;;;3.92;100.00;100305.22;5029714;28;20471;-77
2021/12/09 10:48:01;;;;;;;61.17;32.15;;;;;;;4.07;100.00;100302.72;5029776;28;20075;-76
2021/12/09 10:50:38;;;;;;;65.25;32.60;;;;;;;4.02;100.00;100287.97;4987557;28;20504;-75
2021/12/09 10:55:55;;;;;;;62.47;31.58;;;;;;;4.09;100.00;100265.34;4987883;28;20507;-76
2021/12/09 10:58:25;;;;;;;63.47;34.28;;;;;;;4.14;100.00;100284.41;4987930;28;20853;-77
2021/12/09 11:00:54;;;;;;;67.07;34.38;;;;;;;4.30;100.00;100287.09;4987638;28;20127;-76
2021/12/09 11:03:25;;;;;;;76.25;41.03;;;;;;;4.41;100.00;100300.50;4988159;28;20046;-74
2021/12/09 11:06:06;;;;;;;65.90;34.83;;;;;;;4.46;100.00;100291.44;4987695;28;20042;-76
2021/12/09 11:08:45;;;;;;;62.47;30.85;;;;;;;4.52;100.00;100286.69;4987423;28;20117;-75
2021/12/09 11:11:32;;;;;;;56.53;30.20;;;;;;;4.27;100.00;100278.34;4987951;28;20563;-77
2021/12/09 11:14:21;;;;;;;67.78;36.35;;;;;;;4.40;100.00;100285.97;4987684;28;20068;-77
2021/12/09 11:17:02;;;;;;;67.13;36.97;;;;;;;4.55;100.00;100285.97;4987534;28;20042;-77
2021/12/09 11:22:01;;;;;;;67.18;33.97;;;;;;;4.36;100.00;100282.34;5004887;28;20038;-72
2021/12/09 11:24:32;;;;;;;63.27;34.57;;;;;;;4.17;100.00;100299.91;5010029;28;20471;-79
2021/12/09 11:27:03;;;;;;;73.07;36.25;;;;;;;4.18;100.00;100291.47;4985137;28;20268;-82